Ann Arbor, MI (48106)

10:54 AM EDT on April 27, 2017 (GMT -0400)
Maple Ridge | | Change Station
Active Advisory: Special Statement

Elev 863 ft 42.29 °N, 83.76 °W | Updated 27 seconds ago

Overcast
Overcast
68.9 °F
Feels Like 68.9 °F
N
2.0
Wind Variable Wind from ESE

Today
High -- | Low -- °F
--% Chance of Precip.
Yesterday
High -- | Low -- °F
Precip. -- in
Pressure 29.49 in
Visibility 10.0 miles
Clouds Mostly Cloudy 6000 ft
Dew Point 55 °F
Humidity 61%
Rainfall 0.00 in
Snow Depth Not available.
6:35 AM 8:30 PM
New Moon, 2% visible
METAR KARB 271353Z 19019G25KT 10SM BKN060 20/12 A2951 RMK AO2 SLP987 T02000122
Pressure 29.49 in
Visibility 10.0 miles
Clouds Mostly Cloudy 6000 ft
Dew Point 55 °F
Humidity 61%
Rainfall 0.00 in
Snow Depth Not available.
6:35 AM 8:30 PM
New Moon, 2% visible
METAR KARB 271353Z 19019G25KT 10SM BKN060 20/12 A2951 RMK AO2 SLP987 T02000122

Get Your Daily Forecast Email!

Thanks for signing up!

Be on the lookout for a verification email in your inbox.

You'll start receiving severe weather alerts in your inbox..

×

10-Day Weather Forecast

Almanac

Astronomy

Apr. 27, 2017 Rise Set
Actual Time
Civil Twilight
Nautical Twilight
Astronomical Twilight
Moon
Length of Visible Light
Length of Day
Tomorrow will be .
, % of the Moon is Illuminated

Today's Extremes

State Highs State Lows

Community

WunderPhotos

WunderBlog® & News

Nearby

Air Quality

  Air Quality AQ Index Pollutant
Not available.

Snow Depth

Station Depth Elevation

Earthquake Activity

City Distance Mag. Time & Date
Minimum magnitude displayed is 2.5.

Coastal Water Temperatures

Place Temperature

Stations

Nearby Weather Stations

Station Location Temp. Windchill Dew Point Humidity Wind Precip. Elev Updated Type
                   

Watches & Warnings

Special Statement
Issued: 10:36 AM EDT Apr. 27, 2017 – National Weather Service

... South to southwest winds gusting to around 45 mph...

A strong cold front will track through Southeast Michigan,
producing south to southwest winds gusts around 45 mph by noon.
Gusts could briefly exceed 45 mph across the Saginaw Valley. In
addition, showers and possible thunderstorms will move into the
area, mainly east of U.S. 23. Any thunderstorm that develops will
be capable of producing stronger winds of 50 mph or greater.



Sf

1036 am EDT Thu Apr 27 2017

... South to southwest winds gusting to around 45 mph...

A strong cold front will track through Southeast Michigan,
producing south to southwest winds gusts around 45 mph by noon.
Gusts could briefly exceed 45 mph across the Saginaw Valley. In
addition, showers and possible thunderstorms will move into the
area, mainly east of U.S. 23. Any thunderstorm that develops will
be capable of producing stronger winds of 50 mph or greater.



Sf